sensor_id;sensor_type;location;lat;lon;timestamp;temperature;humidity
19044;DHT22;9654;52.302;8.120;2023-01-31T00:00:51;3.80;99.90
19044;DHT22;9654;52.302;8.120;2023-01-31T00:03:18;3.80;99.90
19044;DHT22;9654;52.302;8.120;2023-01-31T00:05:44;3.80;99.90
19044;DHT22;9654;52.302;8.120;2023-01-31T00:08:11;3.80;99.90
19044;DHT22;9654;52.302;8.120;2023-01-31T00:10:39;3.80;99.90
19044;DHT22;9654;52.302;8.120;2023-01-31T00:13:06;3.80;99.90
19044;DHT22;9654;52.302;8.120;2023-01-31T00:15:33;3.70;99.90
19044;DHT22;9654;52.302;8.120;2023-01-31T00:18:00;3.80;99.90
19044;DHT22;9654;52.302;8.120;2023-01-31T00:20:26;3.80;99.90
19044;DHT22;9654;52.302;8.120;2023-01-31T00:22:53;3.70;99.90
19044;DHT22;9654;52.302;8.120;2023-01-31T00:25:20;3.70;99.90
19044;DHT22;9654;52.302;8.120;2023-01-31T00:27:48;3.70;99.90
19044;DHT22;9654;52.302;8.120;2023-01-31T00:30:15;3.60;99.90
19044;DHT22;9654;52.302;8.120;2023-01-31T00:32:42;3.60;99.90
19044;DHT22;9654;52.302;8.120;2023-01-31T00:35:08;3.70;99.90
19044;DHT22;9654;52.302;8.120;2023-01-31T00:37:35;3.70;99.90
19044;DHT22;9654;52.302;8.120;2023-01-31T00:40:03;3.70;99.90
19044;DHT22;9654;52.302;8.120;2023-01-31T00:42:29;3.70;99.90
19044;DHT22;9654;52.302;8.120;2023-01-31T00:44:57;3.70;99.90
19044;DHT22;9654;52.302;8.120;2023-01-31T00:47:24;3.70;99.90
19044;DHT22;9654;52.302;8.120;2023-01-31T00:49:51;3.70;99.90
19044;DHT22;9654;52.302;8.120;2023-01-31T00:52:18;3.70;99.90
19044;DHT22;9654;52.302;8.120;2023-01-31T00:54:44;3.70;99.90
19044;DHT22;9654;52.302;8.120;2023-01-31T00:57:11;3.70;99.90
19044;DHT22;9654;52.302;8.120;2023-01-31T00:59:38;3.70;99.90
19044;DHT22;9654;52.302;8.120;2023-01-31T01:02:06;3.80;99.90
19044;DHT22;9654;52.302;8.120;2023-01-31T01:04:33;3.80;99.90
19044;DHT22;9654;52.302;8.120;2023-01-31T01:07:00;3.80;99.90
19044;DHT22;9654;52.302;8.120;2023-01-31T01:09:26;3.80;99.90
19044;DHT22;9654;52.302;8.120;2023-01-31T01:11:53;3.80;99.90
19044;DHT22;9654;52.302;8.120;2023-01-31T01:14:20;3.80;99.90
19044;DHT22;9654;52.302;8.120;2023-01-31T01:16:47;3.90;99.90
19044;DHT22;9654;52.302;8.120;2023-01-31T01:19:17;3.90;99.90
19044;DHT22;9654;52.302;8.120;2023-01-31T01:21:45;3.80;99.90
19044;DHT22;9654;52.302;8.120;2023-01-31T01:24:13;3.90;99.90
19044;DHT22;9654;52.302;8.120;2023-01-31T01:26:41;3.90;99.90
19044;DHT22;9654;52.302;8.120;2023-01-31T01:29:08;3.90;99.90
19044;DHT22;9654;52.302;8.120;2023-01-31T01:31:36;3.90;99.90
19044;DHT22;9654;52.302;8.120;2023-01-31T01:34:05;3.90;99.90
19044;DHT22;9654;52.302;8.120;2023-01-31T01:36:35;3.90;99.90
19044;DHT22;9654;52.302;8.120;2023-01-31T01:39:03;3.90;99.90
19044;DHT22;9654;52.302;8.120;2023-01-31T01:41:31;3.80;99.90
19044;DHT22;9654;52.302;8.120;2023-01-31T01:44:00;3.80;99.90
19044;DHT22;9654;52.302;8.120;2023-01-31T01:46:28;3.70;99.90
19044;DHT22;9654;52.302;8.120;2023-01-31T01:48:58;3.60;99.90
19044;DHT22;9654;52.302;8.120;2023-01-31T01:51:27;3.60;99.90
19044;DHT22;9654;52.302;8.120;2023-01-31T01:53:59;3.60;99.90
19044;DHT22;9654;52.302;8.120;2023-01-31T01:56:31;3.50;99.90
19044;DHT22;9654;52.302;8.120;2023-01-31T01:59:02;3.60;99.90
19044;DHT22;9654;52.302;8.120;2023-01-31T02:01:33;3.50;99.90
19044;DHT22;9654;52.302;8.120;2023-01-31T02:04:02;3.50;99.90
19044;DHT22;9654;52.302;8.120;2023-01-31T02:06:29;3.40;99.90
19044;DHT22;9654;52.302;8.120;2023-01-31T02:08:57;3.40;99.90
19044;DHT22;9654;52.302;8.120;2023-01-31T02:11:26;3.30;99.90
19044;DHT22;9654;52.302;8.120;2023-01-31T02:13:57;3.30;99.90
19044;DHT22;9654;52.302;8.120;2023-01-31T02:16:26;3.20;99.90
19044;DHT22;9654;52.302;8.120;2023-01-31T02:18:53;3.10;99.90
19044;DHT22;9654;52.302;8.120;2023-01-31T02:21:50;3.10;99.90
19044;DHT22;9654;52.302;8.120;2023-01-31T02:28:00;3.00;99.90
19044;DHT22;9654;52.302;8.120;2023-01-31T02:33:43;2.90;99.90
19044;DHT22;9654;52.302;8.120;2023-01-31T02:36:18;2.90;99.90
19044;DHT22;9654;52.302;8.120;2023-01-31T02:38:58;2.80;99.90
19044;DHT22;9654;52.302;8.120;2023-01-31T02:41:31;2.80;99.90
19044;DHT22;9654;52.302;8.120;2023-01-31T02:44:10;2.70;99.90
19044;DHT22;9654;52.302;8.120;2023-01-31T02:46:59;2.70;99.90
19044;DHT22;9654;52.302;8.120;2023-01-31T02:49:34;2.60;99.90
19044;DHT22;9654;52.302;8.120;2023-01-31T02:52:14;2.60;99.90
19044;DHT22;9654;52.302;8.120;2023-01-31T02:54:45;2.60;99.90
19044;DHT22;9654;52.302;8.120;2023-01-31T02:57:32;2.60;99.90
19044;DHT22;9654;52.302;8.120;2023-01-31T02:59:59;2.60;99.90
19044;DHT22;9654;52.302;8.120;2023-01-31T03:02:27;2.60;99.90
19044;DHT22;9654;52.302;8.120;2023-01-31T03:04:55;2.60;99.90
19044;DHT22;9654;52.302;8.120;2023-01-31T03:07:23;2.60;99.90
19044;DHT22;9654;52.302;8.120;2023-01-31T03:10:02;2.60;99.90
19044;DHT22;9654;52.302;8.120;2023-01-31T03:12:42;2.60;99.90
19044;DHT22;9654;52.302;8.120;2023-01-31T03:15:26;2.60;99.90
19044;DHT22;9654;52.302;8.120;2023-01-31T03:18:20;2.60;99.90
19044;DHT22;9654;52.302;8.120;2023-01-31T03:20:54;2.50;99.90
19044;DHT22;9654;52.302;8.120;2023-01-31T03:23:24;2.50;99.90
19044;DHT22;9654;52.302;8.120;2023-01-31T03:25:57;2.50;99.90
19044;DHT22;9654;52.302;8.120;2023-01-31T03:28:27;2.40;99.90
19044;DHT22;9654;52.302;8.120;2023-01-31T03:30:58;2.40;99.90
19044;DHT22;9654;52.302;8.120;2023-01-31T03:33:31;2.40;99.90
19044;DHT22;9654;52.302;8.120;2023-01-31T03:36:05;2.40;99.90
19044;DHT22;9654;52.302;8.120;2023-01-31T03:38:41;2.40;99.90
19044;DHT22;9654;52.302;8.120;2023-01-31T03:41:13;2.40;99.90
19044;DHT22;9654;52.302;8.120;2023-01-31T03:43:47;2.40;99.90
19044;DHT22;9654;52.302;8.120;2023-01-31T03:46:19;2.40;99.90
19044;DHT22;9654;52.302;8.120;2023-01-31T03:48:51;2.40;99.90
19044;DHT22;9654;52.302;8.120;2023-01-31T03:51:24;2.40;99.90
19044;DHT22;9654;52.302;8.120;2023-01-31T03:53:53;2.50;99.90
19044;DHT22;9654;52.302;8.120;2023-01-31T03:56:27;2.50;99.90
19044;DHT22;9654;52.302;8.120;2023-01-31T03:58:58;2.50;99.90
19044;DHT22;9654;52.302;8.120;2023-01-31T04:01:27;2.60;99.90
19044;DHT22;9654;52.302;8.120;2023-01-31T04:04:00;2.60;99.90
19044;DHT22;9654;52.302;8.120;2023-01-31T04:06:29;2.60;99.90
19044;DHT22;9654;52.302;8.120;2023-01-31T04:08:55;2.60;99.90
19044;DHT22;9654;52.302;8.120;2023-01-31T04:11:24;2.70;99.90
19044;DHT22;9654;52.302;8.120;2023-01-31T04:13:51;2.70;99.90
19044;DHT22;9654;52.302;8.120;2023-01-31T04:16:18;2.70;99.90
19044;DHT22;9654;52.302;8.120;2023-01-31T04:18:45;2.70;99.90
19044;DHT22;9654;52.302;8.120;2023-01-31T04:21:12;2.70;99.90
19044;DHT22;9654;52.302;8.120;2023-01-31T04:23:41;2.70;99.90
19044;DHT22;9654;52.302;8.120;2023-01-31T04:26:07;2.80;99.90
19044;DHT22;9654;52.302;8.120;2023-01-31T04:28:34;2.80;99.90
19044;DHT22;9654;52.302;8.120;2023-01-31T04:31:01;2.80;99.90
19044;DHT22;9654;52.302;8.120;2023-01-31T04:33:28;2.90;99.90
19044;DHT22;9654;52.302;8.120;2023-01-31T04:35:54;2.90;99.90
19044;DHT22;9654;52.302;8.120;2023-01-31T04:38:21;2.90;99.90
19044;DHT22;9654;52.302;8.120;2023-01-31T04:40:49;2.90;99.90
19044;DHT22;9654;52.302;8.120;2023-01-31T04:43:16;2.90;99.90
19044;DHT22;9654;52.302;8.120;2023-01-31T04:45:43;2.90;99.90
19044;DHT22;9654;52.302;8.120;2023-01-31T04:48:10;3.00;99.90
19044;DHT22;9654;52.302;8.120;2023-01-31T04:50:37;3.00;99.90
19044;DHT22;9654;52.302;8.120;2023-01-31T04:53:04;3.00;99.90
19044;DHT22;9654;52.302;8.120;2023-01-31T04:55:33;3.00;99.90
19044;DHT22;9654;52.302;8.120;2023-01-31T04:58:01;3.10;99.90
19044;DHT22;9654;52.302;8.120;2023-01-31T05:00:28;3.10;99.90
19044;DHT22;9654;52.302;8.120;2023-01-31T05:02:55;3.10;99.90
19044;DHT22;9654;52.302;8.120;2023-01-31T05:05:22;3.10;99.90
19044;DHT22;9654;52.302;8.120;2023-01-31T05:07:48;3.10;99.90
19044;DHT22;9654;52.302;8.120;2023-01-31T05:10:15;3.10;99.90
19044;DHT22;9654;52.302;8.120;2023-01-31T05:12:42;3.10;99.90
19044;DHT22;9654;52.302;8.120;2023-01-31T05:15:11;3.20;99.90
19044;DHT22;9654;52.302;8.120;2023-01-31T05:17:38;3.20;99.90
19044;DHT22;9654;52.302;8.120;2023-01-31T05:20:05;3.20;99.90
19044;DHT22;9654;52.302;8.120;2023-01-31T05:22:32;3.30;99.90
19044;DHT22;9654;52.302;8.120;2023-01-31T05:24:59;3.30;99.90
19044;DHT22;9654;52.302;8.120;2023-01-31T05:27:26;3.40;99.90
19044;DHT22;9654;52.302;8.120;2023-01-31T05:29:53;3.40;99.90
19044;DHT22;9654;52.302;8.120;2023-01-31T05:32:21;3.40;99.90
19044;DHT22;9654;52.302;8.120;2023-01-31T05:34:48;3.40;99.90
19044;DHT22;9654;52.302;8.120;2023-01-31T05:37:14;3.40;99.90
19044;DHT22;9654;52.302;8.120;2023-01-31T05:39:41;3.40;99.90
19044;DHT22;9654;52.302;8.120;2023-01-31T05:42:08;3.40;99.90
19044;DHT22;9654;52.302;8.120;2023-01-31T05:44:35;3.50;99.90
19044;DHT22;9654;52.302;8.120;2023-01-31T05:47:02;3.50;99.90
19044;DHT22;9654;52.302;8.120;2023-01-31T05:49:30;3.50;99.90
19044;DHT22;9654;52.302;8.120;2023-01-31T05:51:58;3.50;99.90
19044;DHT22;9654;52.302;8.120;2023-01-31T05:54:24;3.50;99.90
19044;DHT22;9654;52.302;8.120;2023-01-31T05:56:51;3.50;99.90
19044;DHT22;9654;52.302;8.120;2023-01-31T05:59:18;3.60;99.90
19044;DHT22;9654;52.302;8.120;2023-01-31T06:01:45;3.50;99.90
19044;DHT22;9654;52.302;8.120;2023-01-31T06:04:12;3.60;99.90
19044;DHT22;9654;52.302;8.120;2023-01-31T06:06:43;3.60;99.90
19044;DHT22;9654;52.302;8.120;2023-01-31T06:09:10;3.60;99.90
19044;DHT22;9654;52.302;8.120;2023-01-31T06:11:37;3.60;99.90
19044;DHT22;9654;52.302;8.120;2023-01-31T06:14:03;3.60;99.90
19044;DHT22;9654;52.302;8.120;2023-01-31T06:16:31;3.60;99.90
19044;DHT22;9654;52.302;8.120;2023-01-31T06:18:58;3.60;99.90
19044;DHT22;9654;52.302;8.120;2023-01-31T06:21:24;3.60;99.90
19044;DHT22;9654;52.302;8.120;2023-01-31T06:23:54;3.60;99.90
19044;DHT22;9654;52.302;8.120;2023-01-31T06:26:22;3.60;99.90
19044;DHT22;9654;52.302;8.120;2023-01-31T06:28:49;3.70;99.90
19044;DHT22;9654;52.302;8.120;2023-01-31T06:31:15;3.60;99.90
19044;DHT22;9654;52.302;8.120;2023-01-31T06:33:43;3.70;99.90
19044;DHT22;9654;52.302;8.120;2023-01-31T06:36:09;3.70;99.90
19044;DHT22;9654;52.302;8.120;2023-01-31T06:38:36;3.70;99.90
19044;DHT22;9654;52.302;8.120;2023-01-31T06:41:05;3.70;99.90
19044;DHT22;9654;52.302;8.120;2023-01-31T06:43:31;3.70;99.90
19044;DHT22;9654;52.302;8.120;2023-01-31T06:45:58;3.70;99.90
19044;DHT22;9654;52.302;8.120;2023-01-31T06:48:25;3.70;99.90
19044;DHT22;9654;52.302;8.120;2023-01-31T06:50:52;3.70;99.90
19044;DHT22;9654;52.302;8.120;2023-01-31T06:53:19;3.70;99.90
19044;DHT22;9654;52.302;8.120;2023-01-31T06:55:46;3.70;99.90
19044;DHT22;9654;52.302;8.120;2023-01-31T06:58:14;3.70;99.90
19044;DHT22;9654;52.302;8.120;2023-01-31T07:00:40;3.70;99.90
19044;DHT22;9654;52.302;8.120;2023-01-31T07:03:07;3.70;99.90
19044;DHT22;9654;52.302;8.120;2023-01-31T07:05:34;3.70;99.90
19044;DHT22;9654;52.302;8.120;2023-01-31T07:08:01;3.80;99.90
19044;DHT22;9654;52.302;8.120;2023-01-31T07:10:28;3.80;99.90
19044;DHT22;9654;52.302;8.120;2023-01-31T07:12:55;3.80;99.90
19044;DHT22;9654;52.302;8.120;2023-01-31T07:15:23;3.80;99.90
19044;DHT22;9654;52.302;8.120;2023-01-31T07:17:50;3.80;99.90
19044;DHT22;9654;52.302;8.120;2023-01-31T07:20:17;3.80;99.90
19044;DHT22;9654;52.302;8.120;2023-01-31T07:22:44;3.90;99.90
19044;DHT22;9654;52.302;8.120;2023-01-31T07:25:10;3.80;99.90
19044;DHT22;9654;52.302;8.120;2023-01-31T07:27:39;3.90;99.90
19044;DHT22;9654;52.302;8.120;2023-01-31T07:30:06;3.90;99.90
19044;DHT22;9654;52.302;8.120;2023-01-31T07:32:34;3.90;99.90
19044;DHT22;9654;52.302;8.120;2023-01-31T07:35:01;4.00;99.90
19044;DHT22;9654;52.302;8.120;2023-01-31T07:37:28;4.00;99.90
19044;DHT22;9654;52.302;8.120;2023-01-31T07:39:55;4.00;99.90
19044;DHT22;9654;52.302;8.120;2023-01-31T07:42:22;4.00;99.90
19044;DHT22;9654;52.302;8.120;2023-01-31T07:44:48;4.10;99.90
19044;DHT22;9654;52.302;8.120;2023-01-31T07:47:15;4.10;99.90
19044;DHT22;9654;52.302;8.120;2023-01-31T07:49:43;4.10;99.90
19044;DHT22;9654;52.302;8.120;2023-01-31T07:52:10;4.20;99.90
19044;DHT22;9654;52.302;8.120;2023-01-31T07:54:37;4.20;99.90
19044;DHT22;9654;52.302;8.120;2023-01-31T07:57:04;4.20;99.90
19044;DHT22;9654;52.302;8.120;2023-01-31T07:59:31;4.30;99.90
19044;DHT22;9654;52.302;8.120;2023-01-31T08:01:57;4.30;99.90
19044;DHT22;9654;52.302;8.120;2023-01-31T08:04:43;4.30;99.90
19044;DHT22;9654;52.302;8.120;2023-01-31T08:07:10;4.40;99.90
19044;DHT22;9654;52.302;8.120;2023-01-31T08:09:37;4.40;99.90
19044;DHT22;9654;52.302;8.120;2023-01-31T08:12:04;4.40;99.90
19044;DHT22;9654;52.302;8.120;2023-01-31T08:14:32;4.40;99.90
19044;DHT22;9654;52.302;8.120;2023-01-31T08:16:59;4.40;99.90
19044;DHT22;9654;52.302;8.120;2023-01-31T08:19:26;4.40;99.90
19044;DHT22;9654;52.302;8.120;2023-01-31T08:21:54;4.40;99.90
19044;DHT22;9654;52.302;8.120;2023-01-31T08:24:20;4.40;99.90
19044;DHT22;9654;52.302;8.120;2023-01-31T08:26:47;4.40;99.90
19044;DHT22;9654;52.302;8.120;2023-01-31T08:29:14;4.50;99.90
19044;DHT22;9654;52.302;8.120;2023-01-31T08:31:41;4.50;99.90
19044;DHT22;9654;52.302;8.120;2023-01-31T08:34:08;4.50;99.90
19044;DHT22;9654;52.302;8.120;2023-01-31T08:36:34;4.50;99.90
19044;DHT22;9654;52.302;8.120;2023-01-31T08:39:03;4.50;99.90
19044;DHT22;9654;52.302;8.120;2023-01-31T08:41:32;4.50;99.90
19044;DHT22;9654;52.302;8.120;2023-01-31T08:43:59;4.50;99.90
19044;DHT22;9654;52.302;8.120;2023-01-31T08:46:30;4.50;99.90
19044;DHT22;9654;52.302;8.120;2023-01-31T08:48:58;4.50;99.90
19044;DHT22;9654;52.302;8.120;2023-01-31T08:51:25;4.50;99.90
19044;DHT22;9654;52.302;8.120;2023-01-31T08:53:51;4.50;99.90
19044;DHT22;9654;52.302;8.120;2023-01-31T08:56:20;4.50;99.90
19044;DHT22;9654;52.302;8.120;2023-01-31T08:58:50;4.50;99.90
19044;DHT22;9654;52.302;8.120;2023-01-31T09:01:19;4.50;99.90
19044;DHT22;9654;52.302;8.120;2023-01-31T09:03:46;4.60;99.90
19044;DHT22;9654;52.302;8.120;2023-01-31T09:06:16;4.60;99.90
19044;DHT22;9654;52.302;8.120;2023-01-31T09:08:43;4.60;99.90
19044;DHT22;9654;52.302;8.120;2023-01-31T09:11:10;4.60;99.90
19044;DHT22;9654;52.302;8.120;2023-01-31T09:13:43;4.60;99.90
19044;DHT22;9654;52.302;8.120;2023-01-31T09:16:11;4.60;99.90
19044;DHT22;9654;52.302;8.120;2023-01-31T09:18:39;4.60;99.90
19044;DHT22;9654;52.302;8.120;2023-01-31T09:21:07;4.60;99.90
19044;DHT22;9654;52.302;8.120;2023-01-31T09:23:34;4.70;99.90
19044;DHT22;9654;52.302;8.120;2023-01-31T09:26:01;4.70;99.90
19044;DHT22;9654;52.302;8.120;2023-01-31T09:28:28;4.70;99.90
19044;DHT22;9654;52.302;8.120;2023-01-31T09:31:01;4.70;99.90
19044;DHT22;9654;52.302;8.120;2023-01-31T09:33:30;4.70;99.90
19044;DHT22;9654;52.302;8.120;2023-01-31T09:35:58;4.70;99.90
19044;DHT22;9654;52.302;8.120;2023-01-31T09:38:25;4.80;99.90
19044;DHT22;9654;52.302;8.120;2023-01-31T09:40:53;4.80;99.90
19044;DHT22;9654;52.302;8.120;2023-01-31T09:43:23;4.80;99.90
19044;DHT22;9654;52.302;8.120;2023-01-31T09:45:53;4.80;99.90
19044;DHT22;9654;52.302;8.120;2023-01-31T09:48:27;4.90;99.90
19044;DHT22;9654;52.302;8.120;2023-01-31T09:50:55;4.90;99.90
19044;DHT22;9654;52.302;8.120;2023-01-31T09:53:27;4.90;99.90
19044;DHT22;9654;52.302;8.120;2023-01-31T09:56:00;4.90;99.90
19044;DHT22;9654;52.302;8.120;2023-01-31T09:58:34;4.90;99.90
19044;DHT22;9654;52.302;8.120;2023-01-31T10:01:12;4.90;99.90
19044;DHT22;9654;52.302;8.120;2023-01-31T10:03:50;4.90;99.90
19044;DHT22;9654;52.302;8.120;2023-01-31T10:06:24;5.00;99.90
19044;DHT22;9654;52.302;8.120;2023-01-31T10:08:58;5.00;99.90
19044;DHT22;9654;52.302;8.120;2023-01-31T10:11:31;5.00;99.90
19044;DHT22;9654;52.302;8.120;2023-01-31T10:14:03;5.10;99.90
19044;DHT22;9654;52.302;8.120;2023-01-31T10:16:32;5.10;99.90
19044;DHT22;9654;52.302;8.120;2023-01-31T10:19:05;5.10;99.90
19044;DHT22;9654;52.302;8.120;2023-01-31T10:21:38;5.00;99.90
19044;DHT22;9654;52.302;8.120;2023-01-31T10:24:12;5.10;99.90
19044;DHT22;9654;52.302;8.120;2023-01-31T10:26:43;5.10;99.90
19044;DHT22;9654;52.302;8.120;2023-01-31T10:29:15;5.10;99.90
19044;DHT22;9654;52.302;8.120;2023-01-31T10:31:47;5.10;99.90
19044;DHT22;9654;52.302;8.120;2023-01-31T10:34:20;5.10;99.90
19044;DHT22;9654;52.302;8.120;2023-01-31T10:36:53;5.10;99.90
19044;DHT22;9654;52.302;8.120;2023-01-31T10:39:24;5.10;99.90
19044;DHT22;9654;52.302;8.120;2023-01-31T10:42:04;5.10;99.90
19044;DHT22;9654;52.302;8.120;2023-01-31T10:44:39;5.20;99.90
19044;DHT22;9654;52.302;8.120;2023-01-31T10:47:11;5.20;99.90
19044;DHT22;9654;52.302;8.120;2023-01-31T10:49:41;5.20;99.90
19044;DHT22;9654;52.302;8.120;2023-01-31T10:52:20;5.20;99.90
19044;DHT22;9654;52.302;8.120;2023-01-31T10:54:59;5.10;99.90
19044;DHT22;9654;52.302;8.120;2023-01-31T10:57:27;5.10;99.90
19044;DHT22;9654;52.302;8.120;2023-01-31T10:59:54;5.10;99.90
19044;DHT22;9654;52.302;8.120;2023-01-31T11:02:23;5.10;99.90
19044;DHT22;9654;52.302;8.120;2023-01-31T11:04:53;5.20;99.90
19044;DHT22;9654;52.302;8.120;2023-01-31T11:07:21;5.20;99.90
19044;DHT22;9654;52.302;8.120;2023-01-31T11:09:49;5.20;99.90
19044;DHT22;9654;52.302;8.120;2023-01-31T11:12:19;5.20;99.90
19044;DHT22;9654;52.302;8.120;2023-01-31T11:15:04;5.20;99.90
19044;DHT22;9654;52.302;8.120;2023-01-31T11:17:35;5.20;99.90
19044;DHT22;9654;52.302;8.120;2023-01-31T11:20:05;5.30;99.90
19044;DHT22;9654;52.302;8.120;2023-01-31T11:22:33;5.20;99.90
19044;DHT22;9654;52.302;8.120;2023-01-31T11:25:02;5.30;99.90
19044;DHT22;9654;52.302;8.120;2023-01-31T11:27:35;5.30;99.90
19044;DHT22;9654;52.302;8.120;2023-01-31T11:30:04;5.30;99.90
19044;DHT22;9654;52.302;8.120;2023-01-31T11:32:34;5.30;99.90
19044;DHT22;9654;52.302;8.120;2023-01-31T11:35:05;5.30;99.90
19044;DHT22;9654;52.302;8.120;2023-01-31T11:37:33;5.30;99.90
19044;DHT22;9654;52.302;8.120;2023-01-31T11:40:01;5.30;99.90
19044;DHT22;9654;52.302;8.120;2023-01-31T11:42:29;5.30;99.90
19044;DHT22;9654;52.302;8.120;2023-01-31T11:44:58;5.30;99.90
19044;DHT22;9654;52.302;8.120;2023-01-31T11:47:32;5.30;99.90
19044;DHT22;9654;52.302;8.120;2023-01-31T11:50:00;5.30;99.90
19044;DHT22;9654;52.302;8.120;2023-01-31T11:52:31;5.40;99.90
19044;DHT22;9654;52.302;8.120;2023-01-31T11:55:00;5.40;99.90
19044;DHT22;9654;52.302;8.120;2023-01-31T11:57:30;5.40;99.90
19044;DHT22;9654;52.302;8.120;2023-01-31T11:59:59;5.40;99.90
19044;DHT22;9654;52.302;8.120;2023-01-31T12:02:31;5.40;99.90
19044;DHT22;9654;52.302;8.120;2023-01-31T12:05:01;5.40;99.90
19044;DHT22;9654;52.302;8.120;2023-01-31T12:07:43;5.40;99.90
19044;DHT22;9654;52.302;8.120;2023-01-31T12:10:31;5.40;99.90
19044;DHT22;9654;52.302;8.120;2023-01-31T12:13:00;5.40;99.90
19044;DHT22;9654;52.302;8.120;2023-01-31T12:15:28;5.40;99.90
19044;DHT22;9654;52.302;8.120;2023-01-31T12:17:57;5.40;99.90
19044;DHT22;9654;52.302;8.120;2023-01-31T12:20:37;5.40;99.90
19044;DHT22;9654;52.302;8.120;2023-01-31T12:23:15;5.40;99.90
19044;DHT22;9654;52.302;8.120;2023-01-31T12:26:02;5.40;99.90
19044;DHT22;9654;52.302;8.120;2023-01-31T12:28:40;5.40;99.90
19044;DHT22;9654;52.302;8.120;2023-01-31T12:31:28;5.40;99.90
19044;DHT22;9654;52.302;8.120;2023-01-31T12:34:17;5.40;99.90
19044;DHT22;9654;52.302;8.120;2023-01-31T12:36:56;5.40;99.90
19044;DHT22;9654;52.302;8.120;2023-01-31T12:39:46;5.30;99.90
19044;DHT22;9654;52.302;8.120;2023-01-31T12:42:25;5.30;99.90
19044;DHT22;9654;52.302;8.120;2023-01-31T12:45:06;5.30;99.90
19044;DHT22;9654;52.302;8.120;2023-01-31T12:47:50;5.30;99.90
19044;DHT22;9654;52.302;8.120;2023-01-31T12:50:25;5.20;99.90
19044;DHT22;9654;52.302;8.120;2023-01-31T12:53:11;5.20;99.90
19044;DHT22;9654;52.302;8.120;2023-01-31T12:55:49;5.20;99.90
19044;DHT22;9654;52.302;8.120;2023-01-31T12:58:33;5.20;99.90
19044;DHT22;9654;52.302;8.120;2023-01-31T13:01:06;5.20;99.90
19044;DHT22;9654;52.302;8.120;2023-01-31T13:06:29;5.30;99.90
19044;DHT22;9654;52.302;8.120;2023-01-31T13:08:59;5.20;99.90
19044;DHT22;9654;52.302;8.120;2023-01-31T13:11:33;5.20;99.90
19044;DHT22;9654;52.302;8.120;2023-01-31T13:14:04;5.20;99.90
19044;DHT22;9654;52.302;8.120;2023-01-31T13:16:38;5.20;99.90
19044;DHT22;9654;52.302;8.120;2023-01-31T13:19:13;5.20;99.90
19044;DHT22;9654;52.302;8.120;2023-01-31T13:21:45;5.20;99.90
19044;DHT22;9654;52.302;8.120;2023-01-31T13:24:18;5.30;99.90
19044;DHT22;9654;52.302;8.120;2023-01-31T13:26:49;5.20;99.90
19044;DHT22;9654;52.302;8.120;2023-01-31T13:29:19;5.30;99.90
19044;DHT22;9654;52.302;8.120;2023-01-31T13:31:55;5.30;99.90
19044;DHT22;9654;52.302;8.120;2023-01-31T13:34:27;5.30;99.90
19044;DHT22;9654;52.302;8.120;2023-01-31T13:36:57;5.30;99.90
19044;DHT22;9654;52.302;8.120;2023-01-31T13:39:29;5.30;99.90
19044;DHT22;9654;52.302;8.120;2023-01-31T13:41:58;5.30;99.90
19044;DHT22;9654;52.302;8.120;2023-01-31T13:44:24;5.40;99.90
19044;DHT22;9654;52.302;8.120;2023-01-31T13:46:55;5.40;99.90
19044;DHT22;9654;52.302;8.120;2023-01-31T13:49:26;5.50;99.90
19044;DHT22;9654;52.302;8.120;2023-01-31T13:51:55;5.50;99.90
19044;DHT22;9654;52.302;8.120;2023-01-31T13:54:26;5.60;99.90
19044;DHT22;9654;52.302;8.120;2023-01-31T13:56:59;5.60;99.90
19044;DHT22;9654;52.302;8.120;2023-01-31T13:59:29;5.60;99.90
19044;DHT22;9654;52.302;8.120;2023-01-31T14:01:59;5.60;99.90
19044;DHT22;9654;52.302;8.120;2023-01-31T14:04:29;5.70;99.90
19044;DHT22;9654;52.302;8.120;2023-01-31T14:13:36;5.90;99.90
19044;DHT22;9654;52.302;8.120;2023-01-31T14:16:38;5.90;99.90
19044;DHT22;9654;52.302;8.120;2023-01-31T14:22:22;5.90;99.90
19044;DHT22;9654;52.302;8.120;2023-01-31T14:24:59;6.00;99.90
19044;DHT22;9654;52.302;8.120;2023-01-31T14:27:28;6.00;99.90
19044;DHT22;9654;52.302;8.120;2023-01-31T14:30:01;6.00;99.90
19044;DHT22;9654;52.302;8.120;2023-01-31T14:32:37;6.10;99.90
19044;DHT22;9654;52.302;8.120;2023-01-31T14:35:17;6.10;99.90
19044;DHT22;9654;52.302;8.120;2023-01-31T14:37:54;6.20;99.90
19044;DHT22;9654;52.302;8.120;2023-01-31T14:40:26;6.10;99.90
19044;DHT22;9654;52.302;8.120;2023-01-31T14:43:20;6.20;99.90
19044;DHT22;9654;52.302;8.120;2023-01-31T14:46:01;6.20;99.90
19044;DHT22;9654;52.302;8.120;2023-01-31T14:48:56;6.20;99.90
19044;DHT22;9654;52.302;8.120;2023-01-31T14:51:31;6.30;99.90
19044;DHT22;9654;52.302;8.120;2023-01-31T14:54:18;6.30;99.90
19044;DHT22;9654;52.302;8.120;2023-01-31T14:57:12;6.40;99.90
19044;DHT22;9654;52.302;8.120;2023-01-31T14:59:45;6.40;99.90
19044;DHT22;9654;52.302;8.120;2023-01-31T15:02:25;6.50;99.90
19044;DHT22;9654;52.302;8.120;2023-01-31T15:05:03;6.50;99.90
19044;DHT22;9654;52.302;8.120;2023-01-31T15:07:32;6.50;99.90
19044;DHT22;9654;52.302;8.120;2023-01-31T15:09:58;6.60;99.90
19044;DHT22;9654;52.302;8.120;2023-01-31T15:12:50;6.60;99.90
19044;DHT22;9654;52.302;8.120;2023-01-31T15:15:24;6.60;99.90
19044;DHT22;9654;52.302;8.120;2023-01-31T15:17:52;6.60;99.90
19044;DHT22;9654;52.302;8.120;2023-01-31T15:20:25;6.70;99.90
19044;DHT22;9654;52.302;8.120;2023-01-31T15:22:57;6.70;99.90
19044;DHT22;9654;52.302;8.120;2023-01-31T15:25:32;6.70;99.90
19044;DHT22;9654;52.302;8.120;2023-01-31T15:28:00;6.70;99.90
19044;DHT22;9654;52.302;8.120;2023-01-31T15:30:30;6.80;99.90
19044;DHT22;9654;52.302;8.120;2023-01-31T15:33:01;6.80;99.90
19044;DHT22;9654;52.302;8.120;2023-01-31T15:35:37;6.80;99.90
19044;DHT22;9654;52.302;8.120;2023-01-31T15:38:15;6.90;99.90
19044;DHT22;9654;52.302;8.120;2023-01-31T15:40:44;6.90;99.90
19044;DHT22;9654;52.302;8.120;2023-01-31T15:43:20;7.00;99.90
19044;DHT22;9654;52.302;8.120;2023-01-31T15:45:48;7.00;99.90
19044;DHT22;9654;52.302;8.120;2023-01-31T15:48:18;7.00;99.90
19044;DHT22;9654;52.302;8.120;2023-01-31T15:50:50;7.00;99.90
19044;DHT22;9654;52.302;8.120;2023-01-31T15:53:17;7.00;99.90
19044;DHT22;9654;52.302;8.120;2023-01-31T15:55:47;7.00;99.90
19044;DHT22;9654;52.302;8.120;2023-01-31T15:58:18;7.00;99.90
19044;DHT22;9654;52.302;8.120;2023-01-31T16:00:48;7.00;99.90
19044;DHT22;9654;52.302;8.120;2023-01-31T16:03:20;7.00;99.90
19044;DHT22;9654;52.302;8.120;2023-01-31T16:05:51;7.00;99.90
19044;DHT22;9654;52.302;8.120;2023-01-31T16:08:22;7.00;99.90
19044;DHT22;9654;52.302;8.120;2023-01-31T16:10:52;7.10;99.90
19044;DHT22;9654;52.302;8.120;2023-01-31T16:13:19;7.10;99.90
19044;DHT22;9654;52.302;8.120;2023-01-31T16:15:47;7.10;99.90
19044;DHT22;9654;52.302;8.120;2023-01-31T16:18:14;7.10;99.90
19044;DHT22;9654;52.302;8.120;2023-01-31T16:20:44;7.10;99.90
19044;DHT22;9654;52.302;8.120;2023-01-31T16:23:30;7.20;99.90
19044;DHT22;9654;52.302;8.120;2023-01-31T16:26:07;7.20;99.90
19044;DHT22;9654;52.302;8.120;2023-01-31T16:28:39;7.20;99.90
19044;DHT22;9654;52.302;8.120;2023-01-31T16:31:09;7.20;99.90
19044;DHT22;9654;52.302;8.120;2023-01-31T16:33:37;7.20;99.90
19044;DHT22;9654;52.302;8.120;2023-01-31T16:36:07;7.20;99.90
19044;DHT22;9654;52.302;8.120;2023-01-31T16:38:38;7.20;99.90
19044;DHT22;9654;52.302;8.120;2023-01-31T16:41:05;7.20;99.90
19044;DHT22;9654;52.302;8.120;2023-01-31T16:43:38;7.20;99.90